Time;durP1;ratioP1;P1;durP2;ratioP2;P2;SDS_P1;SDS_P2;PMS_P1;PMS_P2;Temp;Humidity;BMP_temperature;BMP_pressure;BME280_temperature;BME280_humidity;BME280_pressure;Samples;Min_cycle;Max_cycle;Signal;HPM_P1;HPM_P2
2021/09/04 00:00:19;;;;;;;8.38;5.10;;;;;;;;;;5094566;28;20538;-84
2021/09/04 00:02:45;;;;;;;9.80;5.30;;;;;;;;;;5094060;28;20039;-84
2021/09/04 00:05:11;;;;;;;8.02;5.22;;;;;;;;;;5076459;28;20067;-84
2021/09/04 00:07:37;;;;;;;8.73;4.97;;;;;;;;;;5094006;28;20544;-84
2021/09/04 00:10:03;;;;;;;8.07;4.80;;;;;;;;;;5077342;28;20043;-85
2021/09/04 00:12:29;;;;;;;8.10;4.57;;;;;;;;;;5093784;28;20047;-89
2021/09/04 00:14:56;;;;;;;7.72;4.38;;;;;;;;;;5094218;28;20116;-83
2021/09/04 00:17:22;;;;;;;8.05;4.55;;;;;;;;;;5077704;28;20104;-83
2021/09/04 00:19:48;;;;;;;9.57;4.88;;;;;;;;;;5076814;28;20495;-83
2021/09/04 00:22:15;;;;;;;10.82;4.47;;;;;;;;;;5094371;28;20126;-83
2021/09/04 00:24:41;;;;;;;9.10;4.80;;;;;;;;;;5093428;28;20047;-83
2021/09/04 00:27:07;;;;;;;8.80;5.00;;;;;;;;;;5093506;28;20476;-83
2021/09/04 00:29:33;;;;;;;7.75;4.72;;;;;;;;;;5089016;28;20051;-83
2021/09/04 00:31:59;;;;;;;8.40;4.80;;;;;;;;;;5101766;28;20524;-83
2021/09/04 00:34:25;;;;;;;7.70;4.85;;;;;;;;;;5077043;28;20050;-84
2021/09/04 00:36:51;;;;;;;7.97;5.05;;;;;;;;;;5093510;28;20598;-84
2021/09/04 00:39:18;;;;;;;8.93;4.70;;;;;;;;;;5077273;28;20051;-83
2021/09/04 00:41:44;;;;;;;9.80;4.65;;;;;;;;;;5093005;28;20047;-83
2021/09/04 00:44:18;;;;;;;10.68;4.55;;;;;;;;;;5093492;28;20139;-83
2021/09/04 00:46:44;;;;;;;8.60;4.60;;;;;;;;;;5093119;28;20383;-83
2021/09/04 00:49:11;;;;;;;7.72;4.32;;;;;;;;;;5093220;28;20519;-84
2021/09/04 00:51:37;;;;;;;8.00;5.22;;;;;;;;;;5075921;28;20055;-83
2021/09/04 00:54:03;;;;;;;7.80;4.32;;;;;;;;;;5093526;28;20051;-84
2021/09/04 00:56:29;;;;;;;8.40;4.40;;;;;;;;;;5092992;28;20050;-87
2021/09/04 00:58:55;;;;;;;7.50;4.22;;;;;;;;;;5093318;28;20475;-84
2021/09/04 01:01:21;;;;;;;7.75;4.00;;;;;;;;;;5093193;28;20039;-83
2021/09/04 01:03:48;;;;;;;8.13;3.80;;;;;;;;;;5092334;28;20665;-83
2021/09/04 01:06:15;;;;;;;6.50;3.50;;;;;;;;;;5103880;28;20079;-83
2021/09/04 01:08:42;;;;;;;7.00;3.50;;;;;;;;;;5092411;28;20044;-84
2021/09/04 01:11:09;;;;;;;6.68;3.22;;;;;;;;;;5092893;28;20120;-82
2021/09/04 01:13:36;;;;;;;7.30;3.50;;;;;;;;;;5092305;28;20036;-86
2021/09/04 01:16:03;;;;;;;6.60;3.50;;;;;;;;;;5092533;28;20051;-83
2021/09/04 01:18:29;;;;;;;7.32;3.90;;;;;;;;;;5076047;28;20452;-86
2021/09/04 01:20:55;;;;;;;5.82;3.47;;;;;;;;;;5109965;28;20083;-83
2021/09/04 01:23:21;;;;;;;5.93;3.78;;;;;;;;;;5093002;28;20051;-83
2021/09/04 01:25:54;;;;;;;8.23;3.80;;;;;;;;;;5075295;28;20074;-87
2021/09/04 01:28:21;;;;;;;7.10;4.20;;;;;;;;;;5079107;28;20051;-82
2021/09/04 01:30:47;;;;;;;6.32;3.70;;;;;;;;;;5109132;28;20043;-85
2021/09/04 01:33:13;;;;;;;6.13;3.53;;;;;;;;;;5092501;28;20525;-84
2021/09/04 01:35:40;;;;;;;8.32;3.80;;;;;;;;;;5091913;28;20047;-86
2021/09/04 01:38:06;;;;;;;8.35;3.70;;;;;;;;;;5092902;28;20135;-85
2021/09/04 01:40:32;;;;;;;7.72;3.83;;;;;;;;;;5092493;28;20501;-89
2021/09/04 01:42:58;;;;;;;6.25;3.83;;;;;;;;;;5110161;28;20039;-84
2021/09/04 01:45:25;;;;;;;10.10;4.43;;;;;;;;;;5092829;28;20047;-84
2021/09/04 01:47:51;;;;;;;6.80;3.92;;;;;;;;;;5074866;28;20043;-84
2021/09/04 01:50:17;;;;;;;12.77;4.57;;;;;;;;;;5110502;28;20094;-85
2021/09/04 01:52:45;;;;;;;8.32;4.00;;;;;;;;;;5091404;28;20054;-84
2021/09/04 01:55:12;;;;;;;6.32;3.78;;;;;;;;;;5075504;28;20043;-84
2021/09/04 01:57:38;;;;;;;8.27;4.13;;;;;;;;;;5091828;28;20055;-84
2021/09/04 02:00:09;;;;;;;8.35;3.97;;;;;;;;;;5092419;28;20047;-84
2021/09/04 02:02:35;;;;;;;6.55;4.20;;;;;;;;;;5074917;28;20047;-85
2021/09/04 02:05:01;;;;;;;6.65;3.72;;;;;;;;;;5091187;28;20062;-85
2021/09/04 02:07:29;;;;;;;8.13;3.78;;;;;;;;;;5092666;28;20126;-85
2021/09/04 02:09:55;;;;;;;6.82;4.28;;;;;;;;;;5109939;28;20132;-85
2021/09/04 02:12:21;;;;;;;11.35;4.18;;;;;;;;;;5092387;28;20089;-84
2021/09/04 02:14:47;;;;;;;6.40;3.97;;;;;;;;;;5091535;28;20122;-84
2021/09/04 02:17:13;;;;;;;7.00;3.65;;;;;;;;;;5092288;28;20059;-84
2021/09/04 02:19:39;;;;;;;6.50;3.85;;;;;;;;;;5091620;28;20499;-84
2021/09/04 02:22:05;;;;;;;7.65;3.85;;;;;;;;;;5092160;28;20070;-84
2021/09/04 02:24:32;;;;;;;6.55;3.85;;;;;;;;;;5091629;28;20072;-90
2021/09/04 02:26:58;;;;;;;7.47;3.65;;;;;;;;;;5081792;28;20067;-85
2021/09/04 02:29:24;;;;;;;7.15;3.97;;;;;;;;;;5092132;28;20498;-84
2021/09/04 02:31:51;;;;;;;7.72;3.67;;;;;;;;;;5074725;28;20054;-84
2021/09/04 02:34:17;;;;;;;7.07;3.72;;;;;;;;;;5114195;28;20043;-85
2021/09/04 02:36:43;;;;;;;8.90;3.80;;;;;;;;;;5095183;28;20486;-84
2021/09/04 02:39:09;;;;;;;9.20;3.83;;;;;;;;;;5096191;28;20047;-85
2021/09/04 02:41:36;;;;;;;7.55;4.40;;;;;;;;;;5113138;28;20043;-87
2021/09/04 02:44:02;;;;;;;7.32;4.10;;;;;;;;;;5079260;28;20051;-84
2021/09/04 02:46:28;;;;;;;7.15;3.90;;;;;;;;;;5096035;28;20035;-85
2021/09/04 02:48:54;;;;;;;9.77;4.25;;;;;;;;;;5095447;28;20134;-84
2021/09/04 02:51:21;;;;;;;12.50;4.50;;;;;;;;;;5095563;28;20063;-85
2021/09/04 02:53:47;;;;;;;9.82;4.88;;;;;;;;;;5094936;28;20044;-85
2021/09/04 02:56:13;;;;;;;7.90;4.05;;;;;;;;;;5078482;28;20051;-84
2021/09/04 02:58:39;;;;;;;7.63;4.35;;;;;;;;;;5095153;28;20077;-84
2021/09/04 03:01:06;;;;;;;5.78;3.83;;;;;;;;;;5095825;28;20051;-85
2021/09/04 03:03:32;;;;;;;8.40;3.97;;;;;;;;;;5095962;28;20057;-88
2021/09/04 03:06:02;;;;;;;7.82;4.30;;;;;;;;;;5094419;28;20043;-84
2021/09/04 03:08:29;;;;;;;6.68;3.90;;;;;;;;;;5113586;28;20044;-85
2021/09/04 03:10:55;;;;;;;11.23;4.00;;;;;;;;;;5094894;28;20075;-84
2021/09/04 03:13:21;;;;;;;6.03;3.60;;;;;;;;;;5095622;28;20075;-85
2021/09/04 03:15:47;;;;;;;5.25;3.63;;;;;;;;;;5094800;28;20078;-84
2021/09/04 03:18:13;;;;;;;9.45;4.25;;;;;;;;;;5095259;28;20082;-84
2021/09/04 03:20:39;;;;;;;7.38;3.60;;;;;;;;;;5083057;28;20044;-85
2021/09/04 03:23:06;;;;;;;8.60;4.32;;;;;;;;;;5090275;28;20043;-85
2021/09/04 03:25:32;;;;;;;7.20;4.13;;;;;;;;;;5095514;28;20104;-85
2021/09/04 03:27:58;;;;;;;8.30;3.85;;;;;;;;;;5112662;28;20105;-85
2021/09/04 03:30:24;;;;;;;5.50;3.60;;;;;;;;;;5095143;28;20132;-84
2021/09/04 03:32:50;;;;;;;8.73;3.65;;;;;;;;;;5077847;28;20051;-84
2021/09/04 03:35:16;;;;;;;8.43;3.80;;;;;;;;;;5094925;28;20059;-84
2021/09/04 03:37:42;;;;;;;6.85;3.58;;;;;;;;;;5094481;28;20494;-85
2021/09/04 03:40:09;;;;;;;7.78;3.70;;;;;;;;;;5112876;28;20540;-84
2021/09/04 03:42:35;;;;;;;8.32;3.63;;;;;;;;;;5112689;28;20054;-88
2021/09/04 03:45:01;;;;;;;8.80;3.83;;;;;;;;;;5094141;28;20096;-85
2021/09/04 03:47:27;;;;;;;6.82;3.92;;;;;;;;;;5094610;28;20047;-85
2021/09/04 03:49:53;;;;;;;6.88;3.63;;;;;;;;;;5077456;28;20075;-84
2021/09/04 03:52:20;;;;;;;5.50;3.60;;;;;;;;;;5094370;28;20051;-84
2021/09/04 03:54:46;;;;;;;5.93;3.63;;;;;;;;;;5093574;28;20047;-84
2021/09/04 03:57:12;;;;;;;6.85;3.70;;;;;;;;;;5094434;28;20043;-85
2021/09/04 03:59:38;;;;;;;6.68;3.72;;;;;;;;;;5094161;28;20101;-87
2021/09/04 04:02:04;;;;;;;7.82;3.67;;;;;;;;;;5094970;28;20048;-84
2021/09/04 04:04:30;;;;;;;7.65;3.53;;;;;;;;;;5094512;28;20082;-84
2021/09/04 04:06:59;;;;;;;6.75;3.38;;;;;;;;;;5076375;28;20518;-85
2021/09/04 04:09:25;;;;;;;6.55;3.45;;;;;;;;;;5094601;28;20130;-84
2021/09/04 04:11:51;;;;;;;10.48;3.92;;;;;;;;;;5076910;28;20047;-84
2021/09/04 04:14:17;;;;;;;8.23;3.15;;;;;;;;;;5094065;28;20097;-84
2021/09/04 04:16:43;;;;;;;5.80;3.33;;;;;;;;;;5083620;28;20059;-85
2021/09/04 04:19:09;;;;;;;8.07;3.55;;;;;;;;;;5089871;28;20556;-84
2021/09/04 04:21:36;;;;;;;6.25;3.70;;;;;;;;;;5094209;28;20651;-91
2021/09/04 04:24:02;;;;;;;9.90;3.60;;;;;;;;;;5094016;28;20050;-85
2021/09/04 04:26:28;;;;;;;5.78;3.65;;;;;;;;;;5094010;28;20044;-84
2021/09/04 04:28:54;;;;;;;7.40;3.88;;;;;;;;;;5093343;28;20551;-85
2021/09/04 04:31:20;;;;;;;5.38;3.40;;;;;;;;;;5093828;28;20109;-84
2021/09/04 04:33:47;;;;;;;6.53;3.17;;;;;;;;;;5093092;28;20044;-83
2021/09/04 04:36:13;;;;;;;6.30;3.80;;;;;;;;;;5112256;28;20055;-84
2021/09/04 04:38:39;;;;;;;8.82;3.85;;;;;;;;;;5076273;28;20047;-88
2021/09/04 04:41:05;;;;;;;6.35;3.90;;;;;;;;;;5094225;28;20051;-85
2021/09/04 04:43:31;;;;;;;7.97;3.95;;;;;;;;;;5093949;28;20047;-86
2021/09/04 04:45:57;;;;;;;8.13;4.10;;;;;;;;;;5076587;28;20126;-84
2021/09/04 04:48:23;;;;;;;6.32;3.60;;;;;;;;;;5111970;28;20055;-84
2021/09/04 04:50:49;;;;;;;6.38;3.40;;;;;;;;;;5110956;28;20043;-85
2021/09/04 04:53:15;;;;;;;6.22;3.50;;;;;;;;;;5092896;28;20063;-84
2021/09/04 04:55:41;;;;;;;10.00;3.78;;;;;;;;;;5092994;28;20411;-86
2021/09/04 04:58:08;;;;;;;7.47;4.07;;;;;;;;;;5093759;28;20051;-85
2021/09/04 05:00:34;;;;;;;6.82;3.53;;;;;;;;;;5076811;28;20051;-85
2021/09/04 05:03:00;;;;;;;9.07;3.92;;;;;;;;;;5092786;28;20112;-84
2021/09/04 05:05:26;;;;;;;7.25;3.80;;;;;;;;;;5092317;28;20508;-85
2021/09/04 05:07:52;;;;;;;6.80;4.18;;;;;;;;;;5092669;28;20468;-85
2021/09/04 05:10:18;;;;;;;8.65;3.97;;;;;;;;;;5076275;28;20047;-84
2021/09/04 05:12:44;;;;;;;5.50;3.45;;;;;;;;;;5072571;28;20054;-84
2021/09/04 05:15:10;;;;;;;8.95;3.60;;;;;;;;;;5084297;28;20476;-84
2021/09/04 05:17:36;;;;;;;7.63;3.72;;;;;;;;;;5093485;28;20506;-88
2021/09/04 05:20:03;;;;;;;5.72;3.70;;;;;;;;;;5092492;28;20068;-85
2021/09/04 05:22:30;;;;;;;7.55;3.83;;;;;;;;;;5093299;28;20047;-85
2021/09/04 05:24:56;;;;;;;7.40;3.70;;;;;;;;;;5092121;28;20555;-84
2021/09/04 05:27:22;;;;;;;6.45;3.78;;;;;;;;;;5111213;28;20072;-84
2021/09/04 05:29:48;;;;;;;8.38;4.10;;;;;;;;;;5110244;28;20126;-85
2021/09/04 05:32:22;;;;;;;11.57;4.00;;;;;;;;;;5076139;28;20048;-84
2021/09/04 05:34:48;;;;;;;7.60;3.60;;;;;;;;;;5075227;28;20040;-85
2021/09/04 05:37:14;;;;;;;5.65;3.75;;;;;;;;;;5111017;28;20109;-85
2021/09/04 05:39:40;;;;;;;7.38;4.40;;;;;;;;;;5092472;28;20051;-89
2021/09/04 05:42:06;;;;;;;8.05;4.13;;;;;;;;;;5092665;28;20051;-87
2021/09/04 05:44:32;;;;;;;7.93;4.68;;;;;;;;;;5093019;28;20048;-84
2021/09/04 05:46:59;;;;;;;6.78;4.38;;;;;;;;;;5075426;28;20074;-84
2021/09/04 05:49:25;;;;;;;9.43;4.30;;;;;;;;;;5092742;28;20079;-84
2021/09/04 05:51:51;;;;;;;7.68;3.88;;;;;;;;;;5109840;28;20063;-84
2021/09/04 05:54:17;;;;;;;6.70;4.25;;;;;;;;;;5092371;28;20087;-85
2021/09/04 05:56:43;;;;;;;8.43;4.57;;;;;;;;;;5092001;28;20487;-87
2021/09/04 05:59:09;;;;;;;8.90;4.07;;;;;;;;;;5092757;28;20039;-84
2021/09/04 06:01:36;;;;;;;7.50;3.90;;;;;;;;;;5101654;28;20450;-84
2021/09/04 06:04:02;;;;;;;9.73;4.25;;;;;;;;;;5090846;28;20197;-84
2021/09/04 06:06:28;;;;;;;9.82;4.60;;;;;;;;;;5075015;28;20144;-85
2021/09/04 06:08:57;;;;;;;5.35;3.75;;;;;;;;;;5072182;28;20056;-84
2021/09/04 06:11:23;;;;;;;7.57;3.78;;;;;;;;;;5126349;28;20426;-85
2021/09/04 06:13:49;;;;;;;7.45;3.72;;;;;;;;;;5091308;28;20047;-85
2021/09/04 06:16:15;;;;;;;6.90;3.70;;;;;;;;;;5092615;28;20071;-84
2021/09/04 06:18:41;;;;;;;5.18;3.60;;;;;;;;;;5091613;28;20044;-88
2021/09/04 06:21:07;;;;;;;6.50;3.42;;;;;;;;;;5091957;28;20044;-85
2021/09/04 06:23:33;;;;;;;7.93;3.80;;;;;;;;;;5092336;28;20050;-84
2021/09/04 06:25:59;;;;;;;9.05;4.35;;;;;;;;;;5091651;28;20839;-84
2021/09/04 06:28:25;;;;;;;8.98;4.30;;;;;;;;;;5092363;28;20051;-84
2021/09/04 06:30:51;;;;;;;8.38;4.38;;;;;;;;;;5091448;28;20053;-84
2021/09/04 06:33:17;;;;;;;8.23;3.88;;;;;;;;;;5092061;28;20044;-85
2021/09/04 06:35:43;;;;;;;8.00;3.90;;;;;;;;;;5074810;28;20043;-87
2021/09/04 06:38:09;;;;;;;6.20;3.72;;;;;;;;;;5092164;28;20052;-85
2021/09/04 06:40:35;;;;;;;8.45;4.05;;;;;;;;;;5110174;28;20058;-84
2021/09/04 06:43:02;;;;;;;7.10;3.90;;;;;;;;;;5091616;28;20092;-85
2021/09/04 06:45:28;;;;;;;7.72;3.47;;;;;;;;;;5091766;28;20048;-83
2021/09/04 06:47:54;;;;;;;6.22;3.35;;;;;;;;;;5091291;28;20762;-83
2021/09/04 06:50:20;;;;;;;8.88;3.72;;;;;;;;;;5091849;28;20120;-83
2021/09/04 06:52:46;;;;;;;7.72;3.60;;;;;;;;;;5091076;28;20108;-84
2021/09/04 06:55:12;;;;;;;7.35;3.42;;;;;;;;;;5109777;28;20502;-84
2021/09/04 06:57:38;;;;;;;6.55;3.08;;;;;;;;;;5085103;28;20048;-83
2021/09/04 07:00:04;;;;;;;7.40;3.00;;;;;;;;;;5086353;28;20055;-84
2021/09/04 07:02:31;;;;;;;6.03;2.78;;;;;;;;;;5109542;28;20446;-83
2021/09/04 07:04:57;;;;;;;5.50;3.00;;;;;;;;;;5072763;28;20048;-84
2021/09/04 07:07:23;;;;;;;4.15;2.70;;;;;;;;;;5091512;28;20051;-83
2021/09/04 07:09:49;;;;;;;7.95;2.90;;;;;;;;;;5090675;28;20129;-83
2021/09/04 07:12:15;;;;;;;6.55;2.78;;;;;;;;;;5091292;28;20522;-84
2021/09/04 07:14:41;;;;;;;5.47;2.90;;;;;;;;;;5090956;28;20075;-83
2021/09/04 07:17:07;;;;;;;5.30;3.00;;;;;;;;;;5074056;28;20051;-85
2021/09/04 07:19:33;;;;;;;8.07;3.25;;;;;;;;;;5092157;28;20043;-84
2021/09/04 07:21:59;;;;;;;6.93;2.90;;;;;;;;;;5077191;28;20048;-84
2021/09/04 07:24:25;;;;;;;4.88;3.13;;;;;;;;;;5094879;28;20135;-84
2021/09/04 07:26:52;;;;;;;6.78;3.08;;;;;;;;;;5093586;28;20065;-82
2021/09/04 07:29:18;;;;;;;6.18;2.70;;;;;;;;;;5112613;28;20236;-82
2021/09/04 07:31:44;;;;;;;5.93;2.70;;;;;;;;;;5077241;28;20039;-86
2021/09/04 07:34:10;;;;;;;7.40;2.85;;;;;;;;;;5077335;28;20039;-82
2021/09/04 07:36:36;;;;;;;7.45;3.00;;;;;;;;;;5077674;28;20053;-86
2021/09/04 07:39:02;;;;;;;7.47;2.92;;;;;;;;;;5094000;28;20144;-84
2021/09/04 07:41:28;;;;;;;5.43;3.00;;;;;;;;;;5093879;28;20054;-84
2021/09/04 07:43:54;;;;;;;4.43;2.70;;;;;;;;;;5094006;28;20050;-84
2021/09/04 07:46:20;;;;;;;7.22;3.10;;;;;;;;;;5077816;28;20173;-85
2021/09/04 07:48:46;;;;;;;5.60;3.05;;;;;;;;;;5077196;28;20059;-88
2021/09/04 07:51:12;;;;;;;4.57;2.53;;;;;;;;;;5094630;28;20179;-84
2021/09/04 07:53:38;;;;;;;6.20;3.08;;;;;;;;;;5091961;28;20043;-85
2021/09/04 07:56:04;;;;;;;4.10;2.30;;;;;;;;;;5093684;28;20084;-83
2021/09/04 07:58:31;;;;;;;5.68;2.88;;;;;;;;;;5094406;28;20043;-85
2021/09/04 08:00:57;;;;;;;5.72;2.80;;;;;;;;;;5076681;28;20047;-85
2021/09/04 08:03:23;;;;;;;4.57;2.25;;;;;;;;;;5094229;28;20058;-84
2021/09/04 08:05:49;;;;;;;6.57;2.70;;;;;;;;;;5075382;28;20043;-84
2021/09/04 08:08:15;;;;;;;4.40;2.25;;;;;;;;;;5093763;28;20055;-84
2021/09/04 08:10:43;;;;;;;5.28;2.67;;;;;;;;;;5077024;28;20143;-83
2021/09/04 08:13:10;;;;;;;6.70;2.60;;;;;;;;;;5076316;28;20051;-84
2021/09/04 08:15:37;;;;;;;11.40;2.70;;;;;;;;;;5076621;28;20054;-84
2021/09/04 08:18:03;;;;;;;7.18;2.67;;;;;;;;;;5093081;28;20072;-85
2021/09/04 08:20:29;;;;;;;4.93;2.60;;;;;;;;;;5093582;28;20151;-84
2021/09/04 08:22:55;;;;;;;6.88;2.45;;;;;;;;;;5076537;28;20039;-83
2021/09/04 08:25:21;;;;;;;4.88;2.50;;;;;;;;;;5076904;28;20035;-83
2021/09/04 08:27:47;;;;;;;5.68;2.70;;;;;;;;;;5092891;28;20506;-88
2021/09/04 08:30:13;;;;;;;7.00;2.67;;;;;;;;;;5076140;28;20048;-83
2021/09/04 08:32:40;;;;;;;4.72;2.63;;;;;;;;;;5076435;28;20048;-84
2021/09/04 08:35:06;;;;;;;5.57;2.80;;;;;;;;;;5092541;28;20703;-83
2021/09/04 08:37:32;;;;;;;6.90;2.70;;;;;;;;;;5093348;28;20050;-84
2021/09/04 08:39:58;;;;;;;5.00;2.92;;;;;;;;;;5075748;28;20052;-84
2021/09/04 08:42:25;;;;;;;5.05;2.50;;;;;;;;;;5093004;28;20040;-83
2021/09/04 08:44:51;;;;;;;5.72;3.00;;;;;;;;;;5075788;28;20051;-83
2021/09/04 08:47:20;;;;;;;4.05;2.53;;;;;;;;;;5075498;28;20059;-84
2021/09/04 08:49:47;;;;;;;6.65;3.20;;;;;;;;;;5071722;28;20044;-86
2021/09/04 08:52:13;;;;;;;6.15;3.17;;;;;;;;;;5071792;28;20048;-83
2021/09/04 08:54:39;;;;;;;5.28;2.60;;;;;;;;;;5083290;28;20052;-84
2021/09/04 08:57:06;;;;;;;4.70;2.78;;;;;;;;;;5091829;28;20290;-82
2021/09/04 08:59:32;;;;;;;6.45;2.75;;;;;;;;;;5075944;28;20047;-82
2021/09/04 09:01:59;;;;;;;5.45;2.97;;;;;;;;;;5074732;28;20119;-83
2021/09/04 09:04:25;;;;;;;5.32;2.60;;;;;;;;;;5092512;28;20073;-82
2021/09/04 09:06:51;;;;;;;5.65;2.70;;;;;;;;;;5073677;28;20100;-82
2021/09/04 09:09:22;;;;;;;4.80;2.53;;;;;;;;;;5092736;28;20096;-82
2021/09/04 09:11:49;;;;;;;6.55;2.65;;;;;;;;;;5092061;28;20036;-87
2021/09/04 09:14:15;;;;;;;7.65;3.38;;;;;;;;;;5092586;28;20478;-83
2021/09/04 09:16:49;;;;;;;9.82;2.95;;;;;;;;;;5091928;28;20071;-82
2021/09/04 09:19:15;;;;;;;5.70;2.38;;;;;;;;;;5075586;28;20051;-83
2021/09/04 09:21:41;;;;;;;7.13;3.03;;;;;;;;;;5092512;28;20073;-83
2021/09/04 09:24:18;;;;;;;7.05;3.50;;;;;;;;;;5075001;28;20035;-83
2021/09/04 09:26:48;;;;;;;6.28;3.05;;;;;;;;;;5075430;28;20149;-83
2021/09/04 09:29:18;;;;;;;6.40;3.25;;;;;;;;;;5092011;28;20044;-83
2021/09/04 09:31:44;;;;;;;5.40;3.40;;;;;;;;;;5075328;28;20090;-83
2021/09/04 09:34:11;;;;;;;6.65;3.10;;;;;;;;;;5091491;28;20135;-83
2021/09/04 09:36:51;;;;;;;7.05;3.20;;;;;;;;;;5092187;28;20514;-82
2021/09/04 09:39:17;;;;;;;4.85;3.08;;;;;;;;;;5075290;28;20522;-85
2021/09/04 09:41:50;;;;;;;7.57;3.63;;;;;;;;;;5109686;28;20078;-83
2021/09/04 09:44:17;;;;;;;7.90;3.58;;;;;;;;;;5092003;28;20091;-83
2021/09/04 09:47:09;;;;;;;5.72;3.38;;;;;;;;;;5075114;28;20092;-84
2021/09/04 09:49:35;;;;;;;5.97;3.40;;;;;;;;;;5088696;28;20058;-85
2021/09/04 09:52:05;;;;;;;8.07;3.40;;;;;;;;;;5091032;28;20051;-85
2021/09/04 09:54:33;;;;;;;6.07;3.20;;;;;;;;;;5091940;28;20073;-82
2021/09/04 09:57:00;;;;;;;6.05;3.30;;;;;;;;;;5091816;28;20419;-88
2021/09/04 09:59:30;;;;;;;10.43;3.88;;;;;;;;;;5092607;28;20159;-89
2021/09/04 10:01:57;;;;;;;6.18;3.35;;;;;;;;;;5074559;28;20090;-88
2021/09/04 10:04:31;;;;;;;7.95;3.63;;;;;;;;;;5091907;28;20543;-88
2021/09/04 10:06:57;;;;;;;7.47;4.38;;;;;;;;;;5073408;28;20066;-87
2021/09/04 10:09:27;;;;;;;7.25;3.90;;;;;;;;;;5075005;28;20055;-87
2021/09/04 10:11:53;;;;;;;7.05;4.13;;;;;;;;;;5074318;28;20067;-87
2021/09/04 10:14:20;;;;;;;9.57;4.65;;;;;;;;;;5074927;28;20046;-87
2021/09/04 10:16:47;;;;;;;7.10;4.65;;;;;;;;;;5074958;28;20051;-88
2021/09/04 10:19:17;;;;;;;9.77;4.72;;;;;;;;;;5074269;28;20047;-88
2021/09/04 10:21:43;;;;;;;7.85;4.45;;;;;;;;;;5074809;28;20516;-88
2021/09/04 10:24:09;;;;;;;7.40;4.47;;;;;;;;;;5074306;28;20221;-87
2021/09/04 10:26:42;;;;;;;6.75;4.53;;;;;;;;;;5091550;28;20376;-87
2021/09/04 10:29:10;;;;;;;8.27;5.00;;;;;;;;;;5074058;28;20044;-87
2021/09/04 10:31:46;;;;;;;7.30;5.22;;;;;;;;;;5091656;28;20138;-84
2021/09/04 10:34:13;;;;;;;9.40;5.05;;;;;;;;;;5074090;28;20047;-83
2021/09/04 10:36:52;;;;;;;8.50;5.22;;;;;;;;;;5091678;28;20050;-84
2021/09/04 10:39:20;;;;;;;11.23;5.30;;;;;;;;;;5091979;28;20048;-83
2021/09/04 10:41:46;;;;;;;8.25;5.22;;;;;;;;;;5091960;28;20403;-84
2021/09/04 10:44:12;;;;;;;11.30;5.45;;;;;;;;;;5071889;28;20048;-86
2021/09/04 10:46:39;;;;;;;9.95;5.90;;;;;;;;;;5071619;28;20044;-88
2021/09/04 10:49:05;;;;;;;9.27;5.75;;;;;;;;;;5081952;28;20043;-84
2021/09/04 10:51:51;;;;;;;9.68;6.00;;;;;;;;;;5075169;28;20069;-84
2021/09/04 10:54:50;;;;;;;7.18;4.88;;;;;;;;;;5094178;28;20138;-84
2021/09/04 10:57:17;;;;;;;10.05;6.15;;;;;;;;;;5051288;28;20091;-84
2021/09/04 10:59:59;;;;;;;11.20;5.15;;;;;;;;;;5096031;28;20047;-84
2021/09/04 11:02:45;;;;;;;8.55;5.25;;;;;;;;;;5079010;28;20047;-83
2021/09/04 11:05:27;;;;;;;11.02;5.90;;;;;;;;;;5097786;28;20032;-84
2021/09/04 11:08:06;;;;;;;9.90;5.05;;;;;;;;;;5095637;28;20189;-84
2021/09/04 11:10:33;;;;;;;10.05;5.43;;;;;;;;;;5096295;28;20066;-84
2021/09/04 11:13:14;;;;;;;9.57;5.13;;;;;;;;;;5078344;28;20491;-85
2021/09/04 11:15:41;;;;;;;8.30;5.70;;;;;;;;;;5095961;28;20463;-85
2021/09/04 11:18:07;;;;;;;12.48;5.50;;;;;;;;;;5078199;28;20048;-85
2021/09/04 11:20:33;;;;;;;9.40;5.70;;;;;;;;;;5096064;28;20077;-84
2021/09/04 11:23:00;;;;;;;10.45;5.63;;;;;;;;;;5095225;28;20047;-84
2021/09/04 11:25:26;;;;;;;10.60;5.43;;;;;;;;;;5113971;28;20094;-83
2021/09/04 11:27:52;;;;;;;9.93;4.93;;;;;;;;;;5096204;28;20035;-88
2021/09/04 11:30:20;;;;;;;9.57;5.57;;;;;;;;;;5115863;28;20047;-85
2021/09/04 11:32:47;;;;;;;9.93;5.60;;;;;;;;;;5096857;28;20055;-84
2021/09/04 11:35:13;;;;;;;9.30;5.38;;;;;;;;;;5096234;28;20172;-87
2021/09/04 11:37:43;;;;;;;12.90;6.22;;;;;;;;;;5096409;28;20055;-83
2021/09/04 11:40:13;;;;;;;10.63;5.82;;;;;;;;;;5096195;28;20122;-85
2021/09/04 11:42:43;;;;;;;10.40;6.05;;;;;;;;;;5079540;28;20050;-85
2021/09/04 11:45:31;;;;;;;9.43;6.07;;;;;;;;;;5096234;28;20085;-86
2021/09/04 11:48:04;;;;;;;10.60;5.78;;;;;;;;;;5096138;28;20504;-85
2021/09/04 11:50:31;;;;;;;10.07;5.68;;;;;;;;;;5079757;28;20044;-83
2021/09/04 11:52:58;;;;;;;7.85;5.43;;;;;;;;;;5096402;28;20450;-84
2021/09/04 11:55:25;;;;;;;9.75;5.53;;;;;;;;;;5096500;28;20122;-84
2021/09/04 11:57:56;;;;;;;9.68;6.13;;;;;;;;;;5078133;28;20036;-88
2021/09/04 12:00:26;;;;;;;12.52;6.20;;;;;;;;;;5078049;28;20396;-83
2021/09/04 12:02:55;;;;;;;11.77;5.80;;;;;;;;;;5112468;28;20112;-88
2021/09/04 12:05:25;;;;;;;12.85;5.93;;;;;;;;;;5093559;28;20135;-84
2021/09/04 12:07:54;;;;;;;9.88;5.75;;;;;;;;;;5094409;28;20073;-89
2021/09/04 12:10:25;;;;;;;8.45;5.60;;;;;;;;;;5094906;28;20078;-83
2021/09/04 12:12:53;;;;;;;9.55;5.97;;;;;;;;;;5094125;28;20040;-89
2021/09/04 12:15:20;;;;;;;8.52;5.80;;;;;;;;;;5094087;28;20043;-83
2021/09/04 12:17:53;;;;;;;9.43;5.50;;;;;;;;;;5078091;28;20043;-83
2021/09/04 12:20:26;;;;;;;9.35;5.05;;;;;;;;;;5095480;28;20044;-85
2021/09/04 12:22:59;;;;;;;8.35;5.35;;;;;;;;;;5094979;28;20126;-89
2021/09/04 12:25:29;;;;;;;10.88;5.35;;;;;;;;;;5094790;28;20048;-84
2021/09/04 12:28:00;;;;;;;8.48;5.10;;;;;;;;;;5073751;28;20135;-86
2021/09/04 12:30:26;;;;;;;9.50;5.07;;;;;;;;;;5073863;28;20043;-87
2021/09/04 12:33:01;;;;;;;8.10;5.32;;;;;;;;;;5073050;28;20054;-87
2021/09/04 12:35:46;;;;;;;9.23;5.25;;;;;;;;;;5073076;28;20090;-86
2021/09/04 12:38:23;;;;;;;8.45;5.13;;;;;;;;;;5072347;28;20180;-86
2021/09/04 12:40:58;;;;;;;7.00;5.25;;;;;;;;;;5076784;28;20082;-88
2021/09/04 12:43:25;;;;;;;9.75;5.18;;;;;;;;;;5076160;28;20043;-86
2021/09/04 12:46:01;;;;;;;7.55;4.80;;;;;;;;;;5093063;28;20035;-89
2021/09/04 12:48:31;;;;;;;7.57;4.70;;;;;;;;;;5055857;28;20143;-87
2021/09/04 12:51:10;;;;;;;9.52;5.55;;;;;;;;;;5055514;28;20502;-87
2021/09/04 12:53:36;;;;;;;10.77;4.88;;;;;;;;;;5055789;28;20488;-85
2021/09/04 12:56:02;;;;;;;9.15;4.70;;;;;;;;;;5073446;28;20496;-85
2021/09/04 12:58:28;;;;;;;7.97;4.80;;;;;;;;;;5075829;28;20048;-86
2021/09/04 13:01:07;;;;;;;8.73;4.53;;;;;;;;;;5092470;28;20051;-90
2021/09/04 13:03:33;;;;;;;7.47;4.35;;;;;;;;;;5076481;28;20048;-86
2021/09/04 13:06:00;;;;;;;9.63;4.82;;;;;;;;;;5074523;28;20441;-83
2021/09/04 13:08:26;;;;;;;8.88;4.90;;;;;;;;;;5092980;28;20251;-83
2021/09/04 13:10:52;;;;;;;9.77;4.65;;;;;;;;;;5075915;28;20043;-89
2021/09/04 13:13:18;;;;;;;8.57;4.72;;;;;;;;;;5092554;28;20052;-85
2021/09/04 13:15:44;;;;;;;8.73;4.95;;;;;;;;;;5092921;28;20050;-85
2021/09/04 13:18:10;;;;;;;10.05;5.15;;;;;;;;;;5109268;28;20047;-84
2021/09/04 13:20:37;;;;;;;7.97;4.90;;;;;;;;;;5093052;28;20482;-84
2021/09/04 13:23:03;;;;;;;7.68;4.72;;;;;;;;;;5110239;28;20063;-82
2021/09/04 13:25:29;;;;;;;8.10;4.25;;;;;;;;;;5091166;28;20126;-85
2021/09/04 13:27:55;;;;;;;7.55;4.30;;;;;;;;;;5110754;28;20120;-87
2021/09/04 13:30:21;;;;;;;8.40;4.47;;;;;;;;;;5092847;28;20048;-85
2021/09/04 13:32:48;;;;;;;7.80;4.60;;;;;;;;;;5110975;28;20079;-87
2021/09/04 13:35:15;;;;;;;8.90;4.60;;;;;;;;;;5110437;28;20039;-85
2021/09/04 13:37:41;;;;;;;8.13;4.78;;;;;;;;;;5084930;28;20056;-85
2021/09/04 13:40:07;;;;;;;7.43;4.82;;;;;;;;;;5090771;28;20043;-85
2021/09/04 13:42:34;;;;;;;6.78;4.10;;;;;;;;;;5093824;28;20036;-84
2021/09/04 13:45:00;;;;;;;8.77;4.38;;;;;;;;;;5092803;28;20063;-86
2021/09/04 13:47:32;;;;;;;6.60;4.22;;;;;;;;;;5077720;28;20047;-85
2021/09/04 13:49:59;;;;;;;6.25;4.18;;;;;;;;;;5092480;28;20076;-85
2021/09/04 13:52:25;;;;;;;6.60;4.68;;;;;;;;;;5090921;28;20135;-85
2021/09/04 13:54:51;;;;;;;7.90;5.00;;;;;;;;;;5111388;28;20130;-87
2021/09/04 13:57:18;;;;;;;9.77;4.90;;;;;;;;;;5093197;28;20043;-84
2021/09/04 13:59:44;;;;;;;8.73;4.78;;;;;;;;;;5093186;28;20454;-84
2021/09/04 14:02:10;;;;;;;7.38;4.93;;;;;;;;;;5092251;28;20519;-85
2021/09/04 14:04:36;;;;;;;8.20;4.95;;;;;;;;;;5110340;28;20043;-91
2021/09/04 14:07:02;;;;;;;10.18;5.00;;;;;;;;;;5076373;28;20452;-84
2021/09/04 14:09:29;;;;;;;7.53;4.80;;;;;;;;;;5093182;28;20066;-84
2021/09/04 14:11:55;;;;;;;8.50;4.63;;;;;;;;;;5092592;28;20056;-88
2021/09/04 14:14:21;;;;;;;8.65;5.03;;;;;;;;;;5093254;28;20173;-84
2021/09/04 14:16:47;;;;;;;8.15;4.60;;;;;;;;;;5093546;28;20036;-84
2021/09/04 14:19:13;;;;;;;7.55;4.90;;;;;;;;;;5110822;28;20051;-84
2021/09/04 14:21:39;;;;;;;11.90;5.15;;;;;;;;;;5092756;28;20047;-83
2021/09/04 14:24:06;;;;;;;10.45;5.18;;;;;;;;;;5092814;28;20130;-83
2021/09/04 14:26:32;;;;;;;8.30;4.90;;;;;;;;;;5093200;28;20055;-83
2021/09/04 14:28:58;;;;;;;6.80;4.43;;;;;;;;;;5111946;28;20185;-84
2021/09/04 14:31:24;;;;;;;8.25;4.78;;;;;;;;;;5096774;28;20063;-83
2021/09/04 14:33:50;;;;;;;8.85;4.90;;;;;;;;;;5097150;28;20044;-83
2021/09/04 14:36:16;;;;;;;6.82;4.72;;;;;;;;;;5095943;28;20051;-85
2021/09/04 14:38:43;;;;;;;8.00;4.45;;;;;;;;;;5096323;28;20046;-85
2021/09/04 14:41:09;;;;;;;7.22;4.93;;;;;;;;;;5113641;28;20130;-84